OIAM  Mahshahr  Airport

Iran

Add Bookmark
ICAO OIAM
IATA MRX
Type Airport
Status Operational
Latitude
30° 33' 22" N
30.556200
Longitude
49° 9' 6" E
49.151901
Local (GMT +4.5 ) UTC
Jun 1, 2016 08:07 am Jun 1, 2016 03:37
Sunrise-Sunset Local UTC
Begin Civil Twilight 05:42 am 01:12
Sunrise 06:09 am 01:39
Sunset 08:12 pm 15:42
End Civil Twilight 08:40 pm 16:10
VFR
VFR
MVFR
MVFR
IFR
IFR
LIFR
LIFR
Unknown
Unavailable

Current Weather

METAR Observed VFR
OIAM 010300Z 00000KT CAVOK 25/12 Q1006 Wed, Jun 1, 2016 @ 03:00 UTC
(37 Minutes ago)
Visual Flight Rules
Wind Visibility Conditions
Calm 10 km or more
  • No significant weather
Temperatures Readings Precipitation
Current Temp
25°C
77°F
Dewpoint
12°C
54°F
Humidity 44%
Altimeter 29.7" Hg
Sea Level Pressure 1,006 mb
Field Elevation
4 m
13 ft
None Recorded

Additional weather within a 92.6km radius of OIAM

Map ICAO Location
OIAG 54.4km E/NE (067°)
VFR
VFR
MVFR
MVFR
IFR
IFR
LIFR
LIFR
Unknown
Unavailable
-
-

CheckWX.com is intended as a tool to help pilots better visualize weather data. It is not intended as a substitute for an official weather briefing obtained from a Flight Service Station. CheckWX.com does not meet the FAA requirements for an official pre-flight weather briefing. Therefore, it's important that pilots still call and obtain an official FSS pre-flight weather briefing.

© 2007-2016 CheckWX.com
03:37:14 UTC